sensor_id;sensor_type;location;lat;lon;timestamp;P1;durP1;ratioP1;P2;durP2;ratioP2
14738;SDS011;7461;52.440;13.540;2022-10-18T00:01:12;20.00;;;17.60;;
14738;SDS011;7461;52.440;13.540;2022-10-18T00:03:39;20.77;;;19.02;;
14738;SDS011;7461;52.440;13.540;2022-10-18T00:06:07;20.50;;;18.73;;
14738;SDS011;7461;52.440;13.540;2022-10-18T00:08:35;21.45;;;19.75;;
14738;SDS011;7461;52.440;13.540;2022-10-18T00:11:03;20.48;;;18.70;;
14738;SDS011;7461;52.440;13.540;2022-10-18T00:13:30;19.95;;;18.55;;
14738;SDS011;7461;52.440;13.540;2022-10-18T00:15:58;20.75;;;19.08;;
14738;SDS011;7461;52.440;13.540;2022-10-18T00:18:26;20.60;;;19.23;;
14738;SDS011;7461;52.440;13.540;2022-10-18T00:20:57;21.67;;;19.85;;
14738;SDS011;7461;52.440;13.540;2022-10-18T00:23:26;21.75;;;19.95;;
14738;SDS011;7461;52.440;13.540;2022-10-18T00:25:59;21.95;;;20.23;;
14738;SDS011;7461;52.440;13.540;2022-10-18T00:28:27;22.75;;;20.90;;
14738;SDS011;7461;52.440;13.540;2022-10-18T00:30:54;19.92;;;18.65;;
14738;SDS011;7461;52.440;13.540;2022-10-18T00:33:21;21.67;;;20.17;;
14738;SDS011;7461;52.440;13.540;2022-10-18T00:35:47;21.83;;;19.92;;
14738;SDS011;7461;52.440;13.540;2022-10-18T00:38:14;21.58;;;19.55;;
14738;SDS011;7461;52.440;13.540;2022-10-18T00:40:41;21.75;;;19.70;;
14738;SDS011;7461;52.440;13.540;2022-10-18T00:43:10;22.90;;;20.85;;
14738;SDS011;7461;52.440;13.540;2022-10-18T00:45:41;23.52;;;21.65;;
14738;SDS011;7461;52.440;13.540;2022-10-18T00:48:08;20.52;;;19.02;;
14738;SDS011;7461;52.440;13.540;2022-10-18T00:50:36;23.40;;;21.17;;
14738;SDS011;7461;52.440;13.540;2022-10-18T00:53:03;22.33;;;20.27;;
14738;SDS011;7461;52.440;13.540;2022-10-18T00:55:34;24.45;;;22.42;;
14738;SDS011;7461;52.440;13.540;2022-10-18T00:58:00;21.45;;;19.65;;
14738;SDS011;7461;52.440;13.540;2022-10-18T01:00:30;23.33;;;21.42;;
14738;SDS011;7461;52.440;13.540;2022-10-18T01:02:58;22.80;;;20.75;;
14738;SDS011;7461;52.440;13.540;2022-10-18T01:05:25;22.48;;;20.80;;
14738;SDS011;7461;52.440;13.540;2022-10-18T01:08:13;20.45;;;18.95;;
14738;SDS011;7461;52.440;13.540;2022-10-18T01:11:00;24.35;;;22.30;;
14738;SDS011;7461;52.440;13.540;2022-10-18T01:13:38;22.00;;;20.30;;
14738;SDS011;7461;52.440;13.540;2022-10-18T01:16:26;21.95;;;20.33;;
14738;SDS011;7461;52.440;13.540;2022-10-18T01:18:58;20.48;;;18.70;;
14738;SDS011;7461;52.440;13.540;2022-10-18T01:21:33;22.30;;;20.52;;
14738;SDS011;7461;52.440;13.540;2022-10-18T01:27:24;22.63;;;21.05;;
14738;SDS011;7461;52.440;13.540;2022-10-18T01:30:23;21.30;;;19.77;;
14738;SDS011;7461;52.440;13.540;2022-10-18T01:33:02;20.08;;;18.65;;
14738;SDS011;7461;52.440;13.540;2022-10-18T01:35:36;20.67;;;19.15;;
14738;SDS011;7461;52.440;13.540;2022-10-18T01:38:09;19.80;;;18.38;;
14738;SDS011;7461;52.440;13.540;2022-10-18T01:40:41;21.52;;;19.83;;
14738;SDS011;7461;52.440;13.540;2022-10-18T01:43:10;22.25;;;20.48;;
14738;SDS011;7461;52.440;13.540;2022-10-18T01:45:41;22.88;;;20.55;;
14738;SDS011;7461;52.440;13.540;2022-10-18T01:48:07;21.13;;;19.50;;
14738;SDS011;7461;52.440;13.540;2022-10-18T01:50:35;19.92;;;18.13;;
14738;SDS011;7461;52.440;13.540;2022-10-18T01:53:02;20.98;;;19.40;;
14738;SDS011;7461;52.440;13.540;2022-10-18T01:55:30;21.75;;;20.13;;
14738;SDS011;7461;52.440;13.540;2022-10-18T01:58:09;21.33;;;19.67;;
14738;SDS011;7461;52.440;13.540;2022-10-18T02:00:46;23.80;;;21.67;;
14738;SDS011;7461;52.440;13.540;2022-10-18T02:03:16;21.38;;;19.98;;
14738;SDS011;7461;52.440;13.540;2022-10-18T02:05:47;22.45;;;20.65;;
14738;SDS011;7461;52.440;13.540;2022-10-18T02:08:23;20.80;;;19.35;;
14738;SDS011;7461;52.440;13.540;2022-10-18T02:10:53;20.27;;;18.70;;
14738;SDS011;7461;52.440;13.540;2022-10-18T02:13:24;19.10;;;17.70;;
14738;SDS011;7461;52.440;13.540;2022-10-18T02:15:56;19.27;;;17.58;;
14738;SDS011;7461;52.440;13.540;2022-10-18T02:18:27;19.00;;;17.60;;
14738;SDS011;7461;52.440;13.540;2022-10-18T02:20:59;18.35;;;17.10;;
14738;SDS011;7461;52.440;13.540;2022-10-18T02:23:28;19.35;;;17.90;;
14738;SDS011;7461;52.440;13.540;2022-10-18T02:25:56;19.90;;;18.15;;
14738;SDS011;7461;52.440;13.540;2022-10-18T02:28:23;18.55;;;17.05;;
14738;SDS011;7461;52.440;13.540;2022-10-18T02:30:50;20.23;;;18.52;;
14738;SDS011;7461;52.440;13.540;2022-10-18T02:33:26;18.30;;;16.67;;
14738;SDS011;7461;52.440;13.540;2022-10-18T02:35:58;18.90;;;17.23;;
14738;SDS011;7461;52.440;13.540;2022-10-18T02:38:30;19.33;;;17.77;;
14738;SDS011;7461;52.440;13.540;2022-10-18T02:40:57;18.30;;;17.15;;
14738;SDS011;7461;52.440;13.540;2022-10-18T02:43:24;19.00;;;17.58;;
14738;SDS011;7461;52.440;13.540;2022-10-18T02:45:52;17.20;;;16.05;;
14738;SDS011;7461;52.440;13.540;2022-10-18T02:48:18;19.02;;;17.63;;
14738;SDS011;7461;52.440;13.540;2022-10-18T02:50:46;18.42;;;17.13;;
14738;SDS011;7461;52.440;13.540;2022-10-18T02:53:13;17.23;;;15.88;;
14738;SDS011;7461;52.440;13.540;2022-10-18T02:55:40;17.40;;;16.00;;
14738;SDS011;7461;52.440;13.540;2022-10-18T02:58:07;15.48;;;14.40;;
14738;SDS011;7461;52.440;13.540;2022-10-18T03:00:34;17.38;;;16.17;;
14738;SDS011;7461;52.440;13.540;2022-10-18T03:03:00;16.55;;;15.25;;
14738;SDS011;7461;52.440;13.540;2022-10-18T03:05:27;16.42;;;15.23;;
14738;SDS011;7461;52.440;13.540;2022-10-18T03:07:56;16.30;;;15.20;;
14738;SDS011;7461;52.440;13.540;2022-10-18T03:10:23;15.80;;;14.75;;
14738;SDS011;7461;52.440;13.540;2022-10-18T03:12:50;17.48;;;16.00;;
14738;SDS011;7461;52.440;13.540;2022-10-18T03:15:16;17.65;;;16.55;;
14738;SDS011;7461;52.440;13.540;2022-10-18T03:17:43;17.55;;;14.88;;
14738;SDS011;7461;52.440;13.540;2022-10-18T03:20:10;17.70;;;16.33;;
14738;SDS011;7461;52.440;13.540;2022-10-18T03:22:37;17.67;;;16.38;;
14738;SDS011;7461;52.440;13.540;2022-10-18T03:25:06;17.80;;;16.27;;
14738;SDS011;7461;52.440;13.540;2022-10-18T03:27:33;17.85;;;15.27;;
14738;SDS011;7461;52.440;13.540;2022-10-18T03:30:00;16.00;;;14.63;;
14738;SDS011;7461;52.440;13.540;2022-10-18T03:32:27;18.67;;;17.02;;
14738;SDS011;7461;52.440;13.540;2022-10-18T03:34:53;16.70;;;15.30;;
14738;SDS011;7461;52.440;13.540;2022-10-18T03:37:20;19.17;;;17.88;;
14738;SDS011;7461;52.440;13.540;2022-10-18T03:39:47;21.27;;;19.40;;
14738;SDS011;7461;52.440;13.540;2022-10-18T03:42:15;19.08;;;17.67;;
14738;SDS011;7461;52.440;13.540;2022-10-18T03:44:42;19.77;;;18.38;;
14738;SDS011;7461;52.440;13.540;2022-10-18T03:47:09;23.42;;;21.63;;
14738;SDS011;7461;52.440;13.540;2022-10-18T03:49:36;22.63;;;21.15;;
14738;SDS011;7461;52.440;13.540;2022-10-18T03:52:03;20.75;;;19.25;;
14738;SDS011;7461;52.440;13.540;2022-10-18T03:54:30;22.52;;;20.95;;
14738;SDS011;7461;52.440;13.540;2022-10-18T03:56:57;20.52;;;19.13;;
14738;SDS011;7461;52.440;13.540;2022-10-18T03:59:25;20.00;;;18.58;;
14738;SDS011;7461;52.440;13.540;2022-10-18T04:01:52;21.42;;;19.38;;
14738;SDS011;7461;52.440;13.540;2022-10-18T04:04:19;19.05;;;17.65;;
14738;SDS011;7461;52.440;13.540;2022-10-18T04:06:46;18.83;;;17.58;;
14738;SDS011;7461;52.440;13.540;2022-10-18T04:09:14;22.00;;;20.50;;
14738;SDS011;7461;52.440;13.540;2022-10-18T04:11:41;21.55;;;19.98;;
14738;SDS011;7461;52.440;13.540;2022-10-18T04:14:07;22.88;;;21.08;;
14738;SDS011;7461;52.440;13.540;2022-10-18T04:16:36;20.75;;;19.35;;
14738;SDS011;7461;52.440;13.540;2022-10-18T04:19:03;22.15;;;20.75;;
14738;SDS011;7461;52.440;13.540;2022-10-18T04:21:30;22.30;;;20.80;;
14738;SDS011;7461;52.440;13.540;2022-10-18T04:23:57;22.40;;;20.80;;
14738;SDS011;7461;52.440;13.540;2022-10-18T04:26:23;23.20;;;21.67;;
14738;SDS011;7461;52.440;13.540;2022-10-18T04:28:50;22.00;;;20.63;;
14738;SDS011;7461;52.440;13.540;2022-10-18T04:31:18;23.35;;;21.38;;
14738;SDS011;7461;52.440;13.540;2022-10-18T04:33:46;22.38;;;20.65;;
14738;SDS011;7461;52.440;13.540;2022-10-18T04:36:13;21.60;;;20.17;;
14738;SDS011;7461;52.440;13.540;2022-10-18T04:38:40;20.02;;;18.42;;
14738;SDS011;7461;52.440;13.540;2022-10-18T04:41:07;22.88;;;20.90;;
14738;SDS011;7461;52.440;13.540;2022-10-18T04:43:33;21.65;;;20.13;;
14738;SDS011;7461;52.440;13.540;2022-10-18T04:46:00;19.77;;;18.45;;
14738;SDS011;7461;52.440;13.540;2022-10-18T04:48:27;20.30;;;18.85;;
14738;SDS011;7461;52.440;13.540;2022-10-18T04:50:56;20.10;;;18.75;;
14738;SDS011;7461;52.440;13.540;2022-10-18T04:53:22;21.20;;;19.63;;
14738;SDS011;7461;52.440;13.540;2022-10-18T04:55:49;23.23;;;21.48;;
14738;SDS011;7461;52.440;13.540;2022-10-18T04:58:16;23.58;;;21.67;;
14738;SDS011;7461;52.440;13.540;2022-10-18T05:00:43;22.30;;;20.75;;
14738;SDS011;7461;52.440;13.540;2022-10-18T05:03:11;22.10;;;20.48;;
14738;SDS011;7461;52.440;13.540;2022-10-18T05:05:39;24.48;;;22.25;;
14738;SDS011;7461;52.440;13.540;2022-10-18T05:08:07;24.38;;;22.75;;
14738;SDS011;7461;52.440;13.540;2022-10-18T05:10:34;24.35;;;22.70;;
14738;SDS011;7461;52.440;13.540;2022-10-18T05:13:01;23.05;;;21.25;;
14738;SDS011;7461;52.440;13.540;2022-10-18T05:15:28;23.88;;;22.17;;
14738;SDS011;7461;52.440;13.540;2022-10-18T05:17:54;22.60;;;21.00;;
14738;SDS011;7461;52.440;13.540;2022-10-18T05:20:21;23.15;;;21.70;;
14738;SDS011;7461;52.440;13.540;2022-10-18T05:22:48;22.58;;;20.98;;
14738;SDS011;7461;52.440;13.540;2022-10-18T05:25:16;26.65;;;24.40;;
14738;SDS011;7461;52.440;13.540;2022-10-18T05:27:43;23.92;;;22.35;;
14738;SDS011;7461;52.440;13.540;2022-10-18T05:30:10;21.58;;;19.67;;
14738;SDS011;7461;52.440;13.540;2022-10-18T05:32:37;23.15;;;21.10;;
14738;SDS011;7461;52.440;13.540;2022-10-18T05:35:04;23.77;;;21.75;;
14738;SDS011;7461;52.440;13.540;2022-10-18T05:37:31;23.40;;;21.80;;
14738;SDS011;7461;52.440;13.540;2022-10-18T05:40:00;24.55;;;22.67;;
14738;SDS011;7461;52.440;13.540;2022-10-18T05:42:28;23.10;;;20.88;;
14738;SDS011;7461;52.440;13.540;2022-10-18T05:44:55;25.23;;;23.20;;
14738;SDS011;7461;52.440;13.540;2022-10-18T05:47:22;23.17;;;21.42;;
14738;SDS011;7461;52.440;13.540;2022-10-18T05:49:49;20.55;;;19.15;;
14738;SDS011;7461;52.440;13.540;2022-10-18T05:52:15;21.55;;;19.90;;
14738;SDS011;7461;52.440;13.540;2022-10-18T05:54:42;23.25;;;21.63;;
14738;SDS011;7461;52.440;13.540;2022-10-18T05:57:09;23.85;;;21.83;;
14738;SDS011;7461;52.440;13.540;2022-10-18T05:59:37;22.75;;;21.27;;
14738;SDS011;7461;52.440;13.540;2022-10-18T06:02:04;21.80;;;20.35;;
14738;SDS011;7461;52.440;13.540;2022-10-18T06:04:31;23.52;;;21.73;;
14738;SDS011;7461;52.440;13.540;2022-10-18T06:07:00;23.30;;;21.58;;
14738;SDS011;7461;52.440;13.540;2022-10-18T06:09:27;26.25;;;24.25;;
14738;SDS011;7461;52.440;13.540;2022-10-18T06:11:55;22.08;;;20.50;;
14738;SDS011;7461;52.440;13.540;2022-10-18T06:14:22;23.80;;;22.02;;
14738;SDS011;7461;52.440;13.540;2022-10-18T06:16:50;22.27;;;20.67;;
14738;SDS011;7461;52.440;13.540;2022-10-18T06:19:17;24.00;;;22.25;;
14738;SDS011;7461;52.440;13.540;2022-10-18T06:21:44;23.33;;;21.38;;
14738;SDS011;7461;52.440;13.540;2022-10-18T06:24:11;23.75;;;21.40;;
14738;SDS011;7461;52.440;13.540;2022-10-18T06:26:38;24.38;;;22.35;;
14738;SDS011;7461;52.440;13.540;2022-10-18T06:29:04;23.30;;;20.98;;
14738;SDS011;7461;52.440;13.540;2022-10-18T06:31:31;22.75;;;21.10;;
14738;SDS011;7461;52.440;13.540;2022-10-18T06:34:00;23.67;;;21.92;;
14738;SDS011;7461;52.440;13.540;2022-10-18T06:36:26;23.00;;;21.33;;
14738;SDS011;7461;52.440;13.540;2022-10-18T06:38:53;22.98;;;21.40;;
14738;SDS011;7461;52.440;13.540;2022-10-18T06:41:21;22.50;;;20.70;;
14738;SDS011;7461;52.440;13.540;2022-10-18T06:43:48;22.88;;;21.33;;
14738;SDS011;7461;52.440;13.540;2022-10-18T06:46:17;23.58;;;21.65;;
14738;SDS011;7461;52.440;13.540;2022-10-18T06:48:44;22.75;;;20.98;;
14738;SDS011;7461;52.440;13.540;2022-10-18T06:51:12;20.50;;;19.02;;
14738;SDS011;7461;52.440;13.540;2022-10-18T06:53:40;20.38;;;18.92;;
14738;SDS011;7461;52.440;13.540;2022-10-18T06:56:08;23.58;;;21.75;;
14738;SDS011;7461;52.440;13.540;2022-10-18T06:58:37;22.58;;;20.95;;
14738;SDS011;7461;52.440;13.540;2022-10-18T07:01:04;22.15;;;20.63;;
14738;SDS011;7461;52.440;13.540;2022-10-18T07:03:32;25.92;;;24.08;;
14738;SDS011;7461;52.440;13.540;2022-10-18T07:06:00;22.23;;;20.42;;
14738;SDS011;7461;52.440;13.540;2022-10-18T07:08:28;21.40;;;19.73;;
14738;SDS011;7461;52.440;13.540;2022-10-18T07:10:55;22.17;;;20.15;;
14738;SDS011;7461;52.440;13.540;2022-10-18T07:13:23;24.58;;;22.67;;
14738;SDS011;7461;52.440;13.540;2022-10-18T07:15:58;25.65;;;23.73;;
14738;SDS011;7461;52.440;13.540;2022-10-18T07:18:26;26.00;;;24.20;;
14738;SDS011;7461;52.440;13.540;2022-10-18T07:20:52;25.27;;;23.20;;
14738;SDS011;7461;52.440;13.540;2022-10-18T07:23:19;25.08;;;23.27;;
14738;SDS011;7461;52.440;13.540;2022-10-18T07:25:49;24.67;;;22.83;;
14738;SDS011;7461;52.440;13.540;2022-10-18T07:28:16;23.67;;;22.05;;
14738;SDS011;7461;52.440;13.540;2022-10-18T07:30:43;26.33;;;24.40;;
14738;SDS011;7461;52.440;13.540;2022-10-18T07:33:10;24.90;;;22.55;;
14738;SDS011;7461;52.440;13.540;2022-10-18T07:35:36;28.17;;;25.77;;
14738;SDS011;7461;52.440;13.540;2022-10-18T07:38:03;25.77;;;23.30;;
14738;SDS011;7461;52.440;13.540;2022-10-18T07:40:30;23.42;;;21.73;;
14738;SDS011;7461;52.440;13.540;2022-10-18T07:42:58;26.40;;;24.05;;
14738;SDS011;7461;52.440;13.540;2022-10-18T07:45:25;28.35;;;26.10;;
14738;SDS011;7461;52.440;13.540;2022-10-18T07:47:53;26.13;;;24.23;;
14738;SDS011;7461;52.440;13.540;2022-10-18T07:50:20;25.42;;;23.38;;
14738;SDS011;7461;52.440;13.540;2022-10-18T07:52:47;26.52;;;24.63;;
14738;SDS011;7461;52.440;13.540;2022-10-18T07:55:14;26.60;;;24.70;;
14738;SDS011;7461;52.440;13.540;2022-10-18T07:57:41;26.77;;;24.92;;
14738;SDS011;7461;52.440;13.540;2022-10-18T08:00:11;27.50;;;25.20;;
14738;SDS011;7461;52.440;13.540;2022-10-18T08:02:39;24.90;;;22.98;;
14738;SDS011;7461;52.440;13.540;2022-10-18T08:05:06;25.45;;;23.55;;
14738;SDS011;7461;52.440;13.540;2022-10-18T08:07:33;28.02;;;25.98;;
14738;SDS011;7461;52.440;13.540;2022-10-18T08:10:00;26.67;;;24.55;;
14738;SDS011;7461;52.440;13.540;2022-10-18T08:12:27;26.67;;;24.48;;
14738;SDS011;7461;52.440;13.540;2022-10-18T08:14:53;26.73;;;24.50;;
14738;SDS011;7461;52.440;13.540;2022-10-18T08:17:22;25.08;;;23.02;;
14738;SDS011;7461;52.440;13.540;2022-10-18T08:19:48;24.70;;;22.48;;
14738;SDS011;7461;52.440;13.540;2022-10-18T08:22:15;25.45;;;23.20;;
14738;SDS011;7461;52.440;13.540;2022-10-18T08:24:42;23.05;;;21.27;;
14738;SDS011;7461;52.440;13.540;2022-10-18T08:27:09;23.05;;;21.27;;
14738;SDS011;7461;52.440;13.540;2022-10-18T08:29:36;23.40;;;21.67;;
14738;SDS011;7461;52.440;13.540;2022-10-18T08:32:03;21.13;;;19.75;;
14738;SDS011;7461;52.440;13.540;2022-10-18T08:34:33;21.05;;;19.52;;
14738;SDS011;7461;52.440;13.540;2022-10-18T08:37:00;21.17;;;19.60;;
14738;SDS011;7461;52.440;13.540;2022-10-18T08:39:27;18.55;;;17.25;;
14738;SDS011;7461;52.440;13.540;2022-10-18T08:42:07;17.85;;;16.27;;
14738;SDS011;7461;52.440;13.540;2022-10-18T08:44:44;14.73;;;13.82;;
14738;SDS011;7461;52.440;13.540;2022-10-18T08:47:14;15.88;;;14.73;;
14738;SDS011;7461;52.440;13.540;2022-10-18T08:49:45;17.90;;;16.45;;
14738;SDS011;7461;52.440;13.540;2022-10-18T08:52:16;15.38;;;14.07;;
14738;SDS011;7461;52.440;13.540;2022-10-18T08:54:53;17.13;;;15.73;;
14738;SDS011;7461;52.440;13.540;2022-10-18T08:57:26;16.70;;;15.40;;
14738;SDS011;7461;52.440;13.540;2022-10-18T08:59:53;15.68;;;14.45;;
14738;SDS011;7461;52.440;13.540;2022-10-18T09:02:35;15.55;;;14.48;;
14738;SDS011;7461;52.440;13.540;2022-10-18T09:05:18;14.77;;;13.52;;
14738;SDS011;7461;52.440;13.540;2022-10-18T09:08:05;16.20;;;14.90;;
14738;SDS011;7461;52.440;13.540;2022-10-18T09:10:50;17.80;;;16.40;;
14738;SDS011;7461;52.440;13.540;2022-10-18T09:13:47;18.10;;;16.48;;
14738;SDS011;7461;52.440;13.540;2022-10-18T09:16:38;14.88;;;13.80;;
14738;SDS011;7461;52.440;13.540;2022-10-18T09:19:13;16.58;;;15.30;;
14738;SDS011;7461;52.440;13.540;2022-10-18T09:21:50;14.00;;;13.05;;
14738;SDS011;7461;52.440;13.540;2022-10-18T09:24:20;13.07;;;12.05;;
14738;SDS011;7461;52.440;13.540;2022-10-18T09:26:54;12.63;;;11.65;;
14738;SDS011;7461;52.440;13.540;2022-10-18T09:29:29;13.80;;;12.70;;
14738;SDS011;7461;52.440;13.540;2022-10-18T09:32:14;15.40;;;10.90;;
14738;SDS011;7461;52.440;13.540;2022-10-18T09:34:50;11.30;;;10.23;;
14738;SDS011;7461;52.440;13.540;2022-10-18T09:37:21;11.40;;;10.60;;
14738;SDS011;7461;52.440;13.540;2022-10-18T09:39:50;12.52;;;11.43;;
14738;SDS011;7461;52.440;13.540;2022-10-18T09:42:26;11.70;;;10.77;;
14738;SDS011;7461;52.440;13.540;2022-10-18T09:44:57;11.73;;;10.75;;
14738;SDS011;7461;52.440;13.540;2022-10-18T09:47:28;8.18;;;7.57;;
14738;SDS011;7461;52.440;13.540;2022-10-18T09:50:02;9.73;;;8.73;;
14738;SDS011;7461;52.440;13.540;2022-10-18T09:52:33;9.20;;;8.38;;
14738;SDS011;7461;52.440;13.540;2022-10-18T09:55:05;9.35;;;8.70;;
14738;SDS011;7461;52.440;13.540;2022-10-18T09:57:41;9.82;;;9.15;;
14738;SDS011;7461;52.440;13.540;2022-10-18T10:00:13;10.30;;;9.52;;
14738;SDS011;7461;52.440;13.540;2022-10-18T10:02:43;9.93;;;9.23;;
14738;SDS011;7461;52.440;13.540;2022-10-18T10:05:11;12.55;;;11.45;;
14738;SDS011;7461;52.440;13.540;2022-10-18T10:07:42;10.52;;;9.73;;
14738;SDS011;7461;52.440;13.540;2022-10-18T10:10:12;10.82;;;9.73;;
14738;SDS011;7461;52.440;13.540;2022-10-18T10:12:44;11.43;;;10.35;;
14738;SDS011;7461;52.440;13.540;2022-10-18T10:15:16;10.85;;;10.15;;
14738;SDS011;7461;52.440;13.540;2022-10-18T10:17:52;11.07;;;10.13;;
14738;SDS011;7461;52.440;13.540;2022-10-18T10:20:21;11.85;;;10.80;;
14738;SDS011;7461;52.440;13.540;2022-10-18T10:22:52;11.25;;;10.45;;
14738;SDS011;7461;52.440;13.540;2022-10-18T10:25:20;10.95;;;10.02;;
14738;SDS011;7461;52.440;13.540;2022-10-18T10:27:50;12.00;;;11.20;;
14738;SDS011;7461;52.440;13.540;2022-10-18T10:30:22;10.20;;;9.40;;
14738;SDS011;7461;52.440;13.540;2022-10-18T10:32:51;12.23;;;10.20;;
14738;SDS011;7461;52.440;13.540;2022-10-18T10:35:22;12.00;;;11.13;;
14738;SDS011;7461;52.440;13.540;2022-10-18T10:37:55;10.43;;;9.30;;
14738;SDS011;7461;52.440;13.540;2022-10-18T10:40:22;14.40;;;10.63;;
14738;SDS011;7461;52.440;13.540;2022-10-18T10:42:55;11.40;;;10.43;;
14738;SDS011;7461;52.440;13.540;2022-10-18T10:45:26;10.73;;;9.93;;
14738;SDS011;7461;52.440;13.540;2022-10-18T10:48:00;11.68;;;10.10;;
14738;SDS011;7461;52.440;13.540;2022-10-18T10:50:30;10.65;;;9.68;;
14738;SDS011;7461;52.440;13.540;2022-10-18T10:52:58;13.23;;;11.88;;
14738;SDS011;7461;52.440;13.540;2022-10-18T10:55:26;12.90;;;11.32;;
14738;SDS011;7461;52.440;13.540;2022-10-18T10:57:58;12.13;;;11.10;;
14738;SDS011;7461;52.440;13.540;2022-10-18T11:00:36;12.15;;;11.32;;
14738;SDS011;7461;52.440;13.540;2022-10-18T11:03:05;12.85;;;11.95;;
14738;SDS011;7461;52.440;13.540;2022-10-18T11:05:44;13.63;;;12.52;;
14738;SDS011;7461;52.440;13.540;2022-10-18T11:08:15;13.70;;;12.52;;
14738;SDS011;7461;52.440;13.540;2022-10-18T11:10:55;20.35;;;18.75;;
14738;SDS011;7461;52.440;13.540;2022-10-18T11:13:30;16.50;;;15.20;;
14738;SDS011;7461;52.440;13.540;2022-10-18T11:16:09;13.20;;;12.15;;
14738;SDS011;7461;52.440;13.540;2022-10-18T11:18:39;13.65;;;12.63;;
14738;SDS011;7461;52.440;13.540;2022-10-18T11:21:09;16.42;;;15.02;;
14738;SDS011;7461;52.440;13.540;2022-10-18T11:23:40;14.57;;;13.20;;
14738;SDS011;7461;52.440;13.540;2022-10-18T11:26:12;15.82;;;14.55;;
14738;SDS011;7461;52.440;13.540;2022-10-18T11:28:56;15.45;;;14.05;;
14738;SDS011;7461;52.440;13.540;2022-10-18T11:31:40;15.35;;;14.05;;
14738;SDS011;7461;52.440;13.540;2022-10-18T11:34:24;14.95;;;13.55;;
14738;SDS011;7461;52.440;13.540;2022-10-18T11:37:12;15.95;;;14.63;;
14738;SDS011;7461;52.440;13.540;2022-10-18T11:39:56;16.17;;;14.75;;
14738;SDS011;7461;52.440;13.540;2022-10-18T11:42:29;15.93;;;14.68;;
14738;SDS011;7461;52.440;13.540;2022-10-18T11:45:06;16.50;;;15.25;;
14738;SDS011;7461;52.440;13.540;2022-10-18T11:47:46;17.80;;;16.30;;
14738;SDS011;7461;52.440;13.540;2022-10-18T11:50:21;21.88;;;20.08;;
14738;SDS011;7461;52.440;13.540;2022-10-18T11:52:59;22.50;;;20.27;;
14738;SDS011;7461;52.440;13.540;2022-10-18T11:55:47;19.38;;;17.83;;
14738;SDS011;7461;52.440;13.540;2022-10-18T11:58:25;17.45;;;15.93;;
14738;SDS011;7461;52.440;13.540;2022-10-18T12:01:05;17.40;;;15.95;;
14738;SDS011;7461;52.440;13.540;2022-10-18T12:03:44;16.85;;;15.55;;
14738;SDS011;7461;52.440;13.540;2022-10-18T12:06:19;17.15;;;15.65;;
14738;SDS011;7461;52.440;13.540;2022-10-18T12:08:49;18.20;;;16.73;;
14738;SDS011;7461;52.440;13.540;2022-10-18T12:11:23;17.13;;;15.82;;
14738;SDS011;7461;52.440;13.540;2022-10-18T12:13:54;21.00;;;19.00;;
14738;SDS011;7461;52.440;13.540;2022-10-18T12:16:24;20.38;;;18.75;;
14738;SDS011;7461;52.440;13.540;2022-10-18T12:18:54;17.38;;;15.77;;
14738;SDS011;7461;52.440;13.540;2022-10-18T12:21:25;18.40;;;16.90;;
14738;SDS011;7461;52.440;13.540;2022-10-18T12:23:54;19.02;;;17.48;;
14738;SDS011;7461;52.440;13.540;2022-10-18T12:26:25;21.65;;;19.88;;
14738;SDS011;7461;52.440;13.540;2022-10-18T12:28:56;19.15;;;17.60;;
14738;SDS011;7461;52.440;13.540;2022-10-18T12:31:33;17.30;;;15.98;;
14738;SDS011;7461;52.440;13.540;2022-10-18T12:34:22;19.35;;;17.63;;
14738;SDS011;7461;52.440;13.540;2022-10-18T12:37:09;17.90;;;16.08;;
14738;SDS011;7461;52.440;13.540;2022-10-18T12:39:56;18.45;;;16.85;;
14738;SDS011;7461;52.440;13.540;2022-10-18T12:42:28;18.75;;;17.13;;
14738;SDS011;7461;52.440;13.540;2022-10-18T12:44:59;19.35;;;17.98;;
14738;SDS011;7461;52.440;13.540;2022-10-18T12:47:28;17.98;;;16.65;;
14738;SDS011;7461;52.440;13.540;2022-10-18T12:49:56;17.42;;;15.98;;
14738;SDS011;7461;52.440;13.540;2022-10-18T12:52:25;16.50;;;15.07;;
14738;SDS011;7461;52.440;13.540;2022-10-18T12:55:01;18.52;;;16.90;;
14738;SDS011;7461;52.440;13.540;2022-10-18T13:00:50;16.27;;;15.07;;
14738;SDS011;7461;52.440;13.540;2022-10-18T13:03:41;15.65;;;14.45;;
14738;SDS011;7461;52.440;13.540;2022-10-18T13:06:18;16.85;;;15.65;;
14738;SDS011;7461;52.440;13.540;2022-10-18T13:08:45;16.38;;;14.77;;
14738;SDS011;7461;52.440;13.540;2022-10-18T13:11:28;16.55;;;15.35;;
14738;SDS011;7461;52.440;13.540;2022-10-18T13:14:14;16.20;;;14.80;;
14738;SDS011;7461;52.440;13.540;2022-10-18T13:17:00;15.20;;;13.90;;
14738;SDS011;7461;52.440;13.540;2022-10-18T13:19:45;15.88;;;14.68;;
14738;SDS011;7461;52.440;13.540;2022-10-18T13:25:15;15.63;;;14.35;;
14738;SDS011;7461;52.440;13.540;2022-10-18T13:27:46;16.80;;;15.43;;
14738;SDS011;7461;52.440;13.540;2022-10-18T13:30:32;16.45;;;15.27;;
14738;SDS011;7461;52.440;13.540;2022-10-18T13:33:14;16.13;;;14.73;;
14738;SDS011;7461;52.440;13.540;2022-10-18T13:35:56;16.90;;;15.35;;
14738;SDS011;7461;52.440;13.540;2022-10-18T13:41:22;18.75;;;17.13;;
14738;SDS011;7461;52.440;13.540;2022-10-18T13:44:08;18.75;;;17.15;;
14738;SDS011;7461;52.440;13.540;2022-10-18T13:50:00;20.42;;;18.02;;
14738;SDS011;7461;52.440;13.540;2022-10-18T13:53:01;21.15;;;19.20;;
14738;SDS011;7461;52.440;13.540;2022-10-18T13:55:51;19.45;;;17.65;;
14738;SDS011;7461;52.440;13.540;2022-10-18T13:58:23;20.75;;;18.85;;
14738;SDS011;7461;52.440;13.540;2022-10-18T14:01:01;18.48;;;17.10;;
14738;SDS011;7461;52.440;13.540;2022-10-18T14:03:39;21.50;;;19.35;;
14738;SDS011;7461;52.440;13.540;2022-10-18T14:06:23;19.83;;;18.05;;
14738;SDS011;7461;52.440;13.540;2022-10-18T14:08:53;21.45;;;19.55;;
14738;SDS011;7461;52.440;13.540;2022-10-18T14:11:26;18.15;;;16.52;;
14738;SDS011;7461;52.440;13.540;2022-10-18T14:14:00;21.48;;;19.42;;
14738;SDS011;7461;52.440;13.540;2022-10-18T14:16:33;21.75;;;19.80;;
14738;SDS011;7461;52.440;13.540;2022-10-18T14:19:07;20.50;;;18.60;;
14738;SDS011;7461;52.440;13.540;2022-10-18T14:21:46;20.08;;;18.27;;
14738;SDS011;7461;52.440;13.540;2022-10-18T14:24:18;21.67;;;19.63;;
14738;SDS011;7461;52.440;13.540;2022-10-18T14:26:47;24.17;;;22.00;;
14738;SDS011;7461;52.440;13.540;2022-10-18T14:29:41;20.70;;;19.05;;
14738;SDS011;7461;52.440;13.540;2022-10-18T14:32:08;23.00;;;21.05;;
14738;SDS011;7461;52.440;13.540;2022-10-18T14:34:36;23.42;;;21.25;;
14738;SDS011;7461;52.440;13.540;2022-10-18T14:37:07;23.83;;;21.52;;
14738;SDS011;7461;52.440;13.540;2022-10-18T14:39:39;23.42;;;21.33;;
14738;SDS011;7461;52.440;13.540;2022-10-18T14:42:16;23.13;;;21.00;;
14738;SDS011;7461;52.440;13.540;2022-10-18T14:44:46;24.02;;;21.88;;
14738;SDS011;7461;52.440;13.540;2022-10-18T14:47:14;22.85;;;20.75;;
14738;SDS011;7461;52.440;13.540;2022-10-18T14:49:42;21.70;;;19.45;;
14738;SDS011;7461;52.440;13.540;2022-10-18T14:52:12;22.10;;;19.90;;
14738;SDS011;7461;52.440;13.540;2022-10-18T14:54:40;22.92;;;20.80;;
14738;SDS011;7461;52.440;13.540;2022-10-18T14:57:12;22.95;;;20.85;;
14738;SDS011;7461;52.440;13.540;2022-10-18T14:59:43;23.95;;;21.83;;
14738;SDS011;7461;52.440;13.540;2022-10-18T15:02:15;23.98;;;21.40;;